Time;durP1;ratioP1;P1;durP2;ratioP2;P2;SDS_P1;SDS_P2;PMS_P1;PMS_P2;Temp;Humidity;BMP_temperature;BMP_pressure;BME280_temperature;BME280_humidity;BME280_pressure;Samples;Min_cycle;Max_cycle;Signal;HPM_P1;HPM_P2
2022/10/13 00:01:26;;;;;;;14.35;3.70;;;13.20;99.90;;;;;;4973757;28;20046;-88
2022/10/13 00:03:53;;;;;;;12.13;4.20;;;13.30;99.90;;;;;;4973933;28;20015;-89
2022/10/13 00:06:22;;;;;;;10.02;3.80;;;13.20;99.90;;;;;;4973638;28;20390;-90
2022/10/13 00:08:48;;;;;;;14.70;4.30;;;13.20;99.90;;;;;;4974155;28;20082;-88
2022/10/13 00:11:23;;;;;;;15.85;4.10;;;13.10;99.90;;;;;;4974126;28;20043;-90
2022/10/13 00:13:50;;;;;;;10.27;3.60;;;13.20;99.90;;;;;;4973810;28;20026;-89
2022/10/13 00:16:19;;;;;;;18.98;5.47;;;13.20;99.90;;;;;;4972583;28;20069;-88
2022/10/13 00:18:45;;;;;;;16.83;4.10;;;13.10;99.90;;;;;;4972636;28;20023;-88
2022/10/13 00:21:16;;;;;;;10.90;4.47;;;13.20;99.90;;;;;;4973689;28;20038;-87
2022/10/13 00:23:42;;;;;;;10.65;4.00;;;13.00;99.90;;;;;;4972890;28;20045;-89
2022/10/13 00:26:11;;;;;;;13.88;3.85;;;13.40;99.90;;;;;;4973822;28;20026;-88
2022/10/13 00:28:37;;;;;;;12.88;4.47;;;13.30;99.90;;;;;;4973758;28;20031;-90
2022/10/13 00:31:03;;;;;;;16.90;4.15;;;13.30;99.90;;;;;;4973652;28;20099;-89
2022/10/13 00:33:28;;;;;;;21.13;4.95;;;13.30;99.90;;;;;;4974141;28;20114;-87
2022/10/13 00:35:54;;;;;;;12.80;4.20;;;13.30;99.90;;;;;;4974367;28;20475;-88
2022/10/13 00:38:22;;;;;;;13.75;4.22;;;13.30;99.90;;;;;;4974673;28;20077;-87
2022/10/13 00:40:51;;;;;;;21.08;5.07;;;13.20;99.90;;;;;;4973685;28;20105;-88
2022/10/13 00:43:22;;;;;;;14.30;4.45;;;13.30;99.90;;;;;;4973511;28;20034;-89
2022/10/13 00:45:51;;;;;;;11.27;4.30;;;13.30;99.90;;;;;;4971871;28;20146;-88
2022/10/13 00:48:25;;;;;;;12.68;4.05;;;13.30;99.90;;;;;;4973404;28;20093;-88
2022/10/13 00:50:52;;;;;;;13.07;3.80;;;13.40;99.90;;;;;;4972588;28;20031;-88
2022/10/13 00:53:20;;;;;;;16.35;4.13;;;13.30;99.90;;;;;;4973392;28;20518;-89
2022/10/13 00:55:47;;;;;;;14.43;4.15;;;13.30;99.90;;;;;;4973658;28;20099;-88
2022/10/13 00:58:15;;;;;;;12.35;4.07;;;13.30;99.90;;;;;;4973524;28;20027;-88
2022/10/13 01:00:45;;;;;;;;;;;13.30;99.90;;;;;;4972631;28;20062;-88
2022/10/13 01:03:11;;;;;;;13.43;3.80;;;13.30;99.90;;;;;;4972532;28;19910;-89
2022/10/13 01:05:38;;;;;;;11.02;4.20;;;13.30;99.90;;;;;;4971102;28;20027;-89
2022/10/13 01:08:05;;;;;;;13.50;4.13;;;13.30;99.90;;;;;;4972322;28;20050;-89
2022/10/13 01:10:31;;;;;;;14.25;4.47;;;;;;;;;;4972255;28;20035;-89
2022/10/13 01:13:03;;;;;;;11.98;3.92;;;13.30;99.90;;;;;;4971458;28;20033;-86
2022/10/13 01:15:42;;;;;;;14.93;4.25;;;13.30;99.90;;;;;;4971715;28;20027;-88
2022/10/13 01:18:29;;;;;;;13.05;4.25;;;13.30;99.90;;;;;;4971373;28;20045;-88
2022/10/13 01:21:16;;;;;;;13.38;3.95;;;13.30;99.90;;;;;;4973206;28;20114;-88
2022/10/13 01:23:51;;;;;;;15.88;3.95;;;13.30;99.90;;;;;;4972826;28;20423;-88
2022/10/13 01:26:47;;;;;;;13.80;4.25;;;13.20;99.90;;;;;;4972746;28;20380;-88
2022/10/13 01:29:22;;;;;;;11.50;3.53;;;13.30;99.90;;;;;;4972682;28;20031;-88
2022/10/13 01:32:13;;;;;;;10.63;3.45;;;13.30;99.90;;;;;;4971359;28;20046;-88
2022/10/13 01:34:51;;;;;;;9.65;4.07;;;13.40;99.90;;;;;;4972416;28;20483;-88
2022/10/13 01:37:28;;;;;;;16.73;4.20;;;13.40;99.90;;;;;;4972093;28;20026;-88
2022/10/13 01:40:11;;;;;;;11.07;3.50;;;13.50;99.90;;;;;;4972931;28;20114;-88
2022/10/13 01:43:09;;;;;;;13.43;3.65;;;13.50;99.90;;;;;;4970332;28;20134;-88
2022/10/13 01:45:41;;;;;;;16.50;3.80;;;13.50;99.90;;;;;;4966107;28;20070;-87
2022/10/13 01:48:08;;;;;;;9.40;3.50;;;13.50;99.90;;;;;;4970147;28;20039;-88
2022/10/13 01:50:37;;;;;;;14.60;3.80;;;13.50;99.90;;;;;;4971582;28;20033;-87
2022/10/13 01:53:04;;;;;;;13.73;3.90;;;13.50;99.90;;;;;;4971572;28;20061;-87
2022/10/13 01:55:30;;;;;;;12.63;4.07;;;13.50;99.90;;;;;;4971588;28;20525;-86
2022/10/13 01:57:56;;;;;;;9.32;3.80;;;;;;;;;;4971992;28;20026;-87
2022/10/13 02:00:23;;;;;;;13.43;4.25;;;13.50;99.90;;;;;;4970887;28;20491;-87
2022/10/13 02:03:04;;;;;;;11.60;4.65;;;13.50;99.90;;;;;;4970765;28;20034;-88
2022/10/13 02:05:48;;;;;;;15.77;4.70;;;13.50;99.90;;;;;;4971392;28;20026;-87
2022/10/13 02:08:34;;;;;;;16.52;4.70;;;13.50;99.90;;;;;;4971264;28;20103;-91
2022/10/13 02:11:11;;;;;;;14.77;4.95;;;14.90;99.90;;;;;;4986615;28;20096;-88
2022/10/13 02:13:42;;;;;;;10.70;4.15;;;13.40;99.90;;;;;;4992896;28;20049;-90
2022/10/13 02:16:08;;;;;;;14.35;4.65;;;14.10;99.90;;;;;;4991768;28;20033;-89
2022/10/13 02:18:35;;;;;;;11.60;4.22;;;13.30;99.90;;;;;;4993762;28;20018;-91
2022/10/13 02:21:03;;;;;;;17.45;5.10;;;13.00;99.90;;;;;;4992009;28;20041;-90
2022/10/13 02:23:29;;;;;;;11.82;3.83;;;13.30;99.90;;;;;;4992973;28;20030;-92
2022/10/13 02:25:57;;;;;;;15.40;4.80;;;13.20;99.90;;;;;;4991972;28;20102;-93
2022/10/13 02:28:23;;;;;;;16.40;4.80;;;13.20;99.90;;;;;;4992284;28;20038;-91
2022/10/13 02:30:50;;;;;;;12.63;4.55;;;;;;;;;;4993256;28;20018;-90
2022/10/13 02:33:16;;;;;;;15.05;4.97;;;;;;;;;;4992107;28;20057;-91
2022/10/13 02:35:44;;;;;;;10.63;4.05;;;13.20;99.90;;;;;;4991510;28;20077;-92
2022/10/13 02:38:13;;;;;;;12.60;5.05;;;13.20;99.90;;;;;;4992236;28;20030;-91
2022/10/13 02:40:39;;;;;;;19.90;5.70;;;13.60;99.90;;;;;;4993409;28;20080;-92
2022/10/13 02:43:05;;;;;;;17.23;5.45;;;;;;;;;;4996036;28;20034;-91
2022/10/13 02:45:33;;;;;;;14.45;5.18;;;13.10;99.90;;;;;;4999742;28;20411;-89
2022/10/13 02:47:59;;;;;;;25.83;5.97;;;13.00;99.90;;;;;;4999675;28;20034;-88
2022/10/13 02:50:25;;;;;;;24.45;6.20;;;13.00;99.90;;;;;;4997479;28;20073;-90
2022/10/13 02:52:53;;;;;;;18.83;5.47;;;12.80;99.90;;;;;;4993534;28;20030;-93
2022/10/13 02:55:19;;;;;;;18.08;5.05;;;12.90;99.90;;;;;;4993103;28;20022;-91
2022/10/13 02:57:45;;;;;;;24.10;6.72;;;;;;;;;;4991489;28;20441;-88
2022/10/13 03:00:17;;;;;;;16.75;5.40;;;12.90;99.90;;;;;;4991710;28;20030;-92
2022/10/13 03:02:43;;;;;;;15.30;5.38;;;12.80;99.90;;;;;;4992687;28;20502;-91
2022/10/13 03:05:12;;;;;;;19.55;7.53;;;;;;;;;;4991174;28;20029;-90
2022/10/13 03:07:40;;;;;;;17.88;5.22;;;;;;;;;;4990937;28;20082;-92
2022/10/13 03:10:06;;;;;;;15.05;5.35;;;12.80;99.90;;;;;;4990597;28;20032;-90
2022/10/13 03:12:32;;;;;;;17.70;5.82;;;12.90;99.90;;;;;;4991367;28;20117;-90
2022/10/13 03:14:58;;;;;;;14.93;6.22;;;12.90;99.90;;;;;;4991065;28;20088;-91
2022/10/13 03:17:24;;;;;;;17.88;5.55;;;14.30;99.90;;;;;;4991920;28;20026;-90
2022/10/13 03:19:50;;;;;;;19.17;4.80;;;13.10;99.90;;;;;;4992207;28;20023;-90
2022/10/13 03:22:18;;;;;;;17.42;5.47;;;12.90;99.90;;;;;;4991042;28;20035;-88
2022/10/13 03:24:45;;;;;;;13.63;5.20;;;;;;;;;;4990019;28;20028;-90
2022/10/13 03:27:10;;;;;;;20.50;5.38;;;13.00;99.90;;;;;;4990936;28;20434;-91
2022/10/13 03:29:36;;;;;;;16.98;5.03;;;13.00;99.90;;;;;;4990574;28;20482;-89
2022/10/13 03:32:04;;;;;;;11.68;4.88;;;13.20;99.90;;;;;;4990938;28;20036;-92
2022/10/13 03:34:30;;;;;;;19.67;5.47;;;13.30;99.90;;;;;;4991963;28;20050;-92
2022/10/13 03:36:56;;;;;;;13.10;4.88;;;13.00;99.90;;;;;;4990018;28;20062;-90
2022/10/13 03:39:22;;;;;;;10.73;5.05;;;;;;;;;;4991124;28;20053;-89
2022/10/13 03:41:48;;;;;;;16.42;5.50;;;13.00;99.90;;;;;;4990162;28;20030;-92
2022/10/13 03:44:16;;;;;;;11.93;4.45;;;13.00;99.90;;;;;;4990037;28;20084;-92
2022/10/13 03:46:42;;;;;;;10.75;4.68;;;;;;;;;;4991341;28;20026;-91
2022/10/13 03:49:10;;;;;;;16.63;4.72;;;13.00;99.90;;;;;;4990348;28;20084;-90
2022/10/13 03:51:35;;;;;;;18.25;4.68;;;13.70;99.90;;;;;;4990519;28;20065;-89
2022/10/13 03:54:01;;;;;;;17.20;5.90;;;;;;;;;;4992021;28;20023;-91
2022/10/13 03:56:28;;;;;;;16.90;4.93;;;;;;;;;;4990706;28;20035;-92
2022/10/13 03:58:59;;;;;;;16.48;4.72;;;12.70;99.90;;;;;;4990959;28;20027;-92
2022/10/13 04:01:27;;;;;;;12.73;3.97;;;13.10;99.90;;;;;;4990282;28;20046;-89
2022/10/13 04:03:54;;;;;;;10.50;4.18;;;13.10;99.90;;;;;;4988912;28;20026;-89
2022/10/13 04:06:20;;;;;;;17.88;4.90;;;;;;;;;;4988300;28;20109;-87
2022/10/13 04:08:47;;;;;;;10.57;4.40;;;;;;;;;;4987890;28;20022;-87
2022/10/13 04:11:14;;;;;;;13.40;5.03;;;13.20;99.90;;;;;;4988653;28;20026;-87
2022/10/13 04:13:41;;;;;;;13.13;4.30;;;13.10;99.90;;;;;;4989053;28;20037;-87
2022/10/13 04:16:12;;;;;;;12.68;4.68;;;12.70;99.90;;;;;;4989325;28;20030;-86
2022/10/13 04:18:38;;;;;;;14.73;5.50;;;;;;;;;;4987453;28;20042;-86
2022/10/13 04:21:12;;;;;;;17.98;5.63;;;13.10;99.90;;;;;;4988265;28;20108;-87
2022/10/13 04:23:38;;;;;;;16.35;5.07;;;;;;;;;;4989314;28;20097;-87
2022/10/13 04:26:04;;;;;;;10.88;4.28;;;13.10;99.90;;;;;;4992798;28;20367;-87
2022/10/13 04:28:34;;;;;;;14.35;4.88;;;13.10;99.90;;;;;;4992801;28;20033;-86
2022/10/13 04:31:03;;;;;;;13.57;4.50;;;13.10;99.90;;;;;;4992291;28;20029;-88
2022/10/13 04:33:29;;;;;;;15.13;4.63;;;13.10;99.90;;;;;;4991662;28;20026;-86
2022/10/13 04:35:55;;;;;;;8.75;4.43;;;13.10;99.90;;;;;;4992541;28;20030;-88
2022/10/13 04:38:20;;;;;;;15.73;5.32;;;13.10;99.90;;;;;;5002083;28;20053;-88
2022/10/13 04:40:46;;;;;;;15.50;5.07;;;13.10;99.90;;;;;;5011373;28;20478;-90
2022/10/13 04:43:12;;;;;;;9.88;5.13;;;13.10;99.90;;;;;;5007236;28;20103;-88
2022/10/13 04:45:38;;;;;;;9.80;4.57;;;13.10;99.90;;;;;;4984103;28;20080;-89
2022/10/13 04:48:04;;;;;;;16.25;5.82;;;13.10;99.90;;;;;;4985923;28;20035;-88
2022/10/13 04:50:30;;;;;;;17.83;4.90;;;13.10;99.90;;;;;;4986556;28;20049;-88
2022/10/13 04:52:56;;;;;;;10.63;4.40;;;;;;;;;;4990277;28;20026;-89
2022/10/13 04:55:22;;;;;;;12.20;4.97;;;;;;;;;;4989110;28;20027;-89
2022/10/13 04:57:47;;;;;;;14.15;4.85;;;13.20;99.90;;;;;;4991875;28;20057;-89
2022/10/13 05:00:14;;;;;;;12.45;5.05;;;;;;;;;;4989978;28;20487;-89
2022/10/13 05:02:40;;;;;;;17.08;5.43;;;;;;;;;;4990122;28;20040;-89
2022/10/13 05:05:06;;;;;;;10.18;4.85;;;13.20;99.90;;;;;;4990505;28;20030;-89
2022/10/13 05:07:32;;;;;;;15.77;5.10;;;;;;;;;;4989648;28;20019;-89
2022/10/13 05:09:58;;;;;;;11.95;5.10;;;;;;;;;;4989043;28;20380;-90
2022/10/13 05:12:24;;;;;;;10.40;5.07;;;;;;;;;;4989134;28;20081;-89
2022/10/13 05:14:53;;;;;;;15.65;5.32;;;;;;;;;;4973395;28;20035;-87
2022/10/13 05:17:19;;;;;;;15.10;5.15;;;;;;;;;;4985682;28;20019;-90
2022/10/13 05:19:45;;;;;;;16.45;5.68;;;;;;;;;;4988028;28;20043;-89
2022/10/13 05:22:11;;;;;;;13.73;5.85;;;13.40;99.90;;;;;;4986685;28;20069;-91
2022/10/13 05:24:39;;;;;;;12.70;5.40;;;;;;;;;;4997126;28;20030;-93
2022/10/13 05:27:17;;;;;;;14.48;6.72;;;13.40;99.90;;;;;;5013710;28;20098;-92
2022/10/13 05:29:43;;;;;;;15.93;6.77;;;;;;;;;;5015027;28;20018;-90
2022/10/13 05:32:09;;;;;;;17.10;6.85;;;;;;;;;;4997043;28;20037;-91
2022/10/13 05:34:49;;;;;;;;;;;;;;;;;;;;;
2022/10/13 05:37:17;;;;;;;20.15;7.18;;;;;;;;;;4993123;28;20036;-91
2022/10/13 05:39:43;;;;;;;10.85;6.68;;;;;;;;;;4990682;28;20117;-89
2022/10/13 05:42:10;;;;;;;22.45;6.00;;;;;;;;;;4990247;28;20141;-89
2022/10/13 05:44:36;;;;;;;14.75;6.25;;;;;;;;;;4990269;28;20026;-89
2022/10/13 05:47:02;;;;;;;14.93;6.65;;;13.50;99.90;;;;;;4991249;28;20037;-89
2022/10/13 05:49:28;;;;;;;11.52;6.72;;;;;;;;;;4990139;28;20085;-89
2022/10/13 05:51:58;;;;;;;14.10;6.20;;;13.50;99.90;;;;;;4987851;28;20026;-89
2022/10/13 05:54:29;;;;;;;12.80;5.65;;;13.50;99.90;;;;;;4989853;28;20073;-89
2022/10/13 05:57:18;;;;;;;16.08;6.00;;;13.50;99.90;;;;;;4991286;28;20446;-91
2022/10/13 05:59:50;;;;;;;17.70;6.75;;;13.50;99.90;;;;;;4987993;28;20501;-93
2022/10/13 06:02:17;;;;;;;10.05;5.70;;;13.60;99.90;;;;;;4985657;28;20066;-93
2022/10/13 06:04:47;;;;;;;18.17;6.50;;;13.60;99.90;;;;;;4971708;28;20030;-91
2022/10/13 06:07:14;;;;;;;11.82;6.05;;;;;;;;;;4992171;28;20388;-91
2022/10/13 06:09:42;;;;;;;14.80;6.13;;;13.60;99.90;;;;;;4993240;28;20109;-90
2022/10/13 06:12:08;;;;;;;;;;;13.60;99.90;;;;;;4991445;28;20026;-91
2022/10/13 06:14:45;;;;;;;12.07;6.10;;;13.60;99.90;;;;;;4999598;28;19909;-94
2022/10/13 06:17:11;;;;;;;18.08;6.90;;;;;;;;;;5005425;28;20052;-94
2022/10/13 06:19:37;;;;;;;12.48;6.70;;;;;;;;;;4989005;28;20406;-90
2022/10/13 06:22:03;;;;;;;14.15;6.78;;;13.70;99.90;;;;;;4989052;28;20046;-90
2022/10/13 06:24:29;;;;;;;11.98;6.75;;;;;;;;;;4990551;28;20018;-90
2022/10/13 06:26:55;;;;;;;15.63;7.30;;;13.80;99.90;;;;;;4989832;28;20085;-89
2022/10/13 06:29:21;;;;;;;16.83;6.68;;;13.80;99.90;;;;;;4988595;28;20018;-91
2022/10/13 06:31:47;;;;;;;11.00;6.07;;;;;;;;;;4988513;28;20030;-88
2022/10/13 06:34:12;;;;;;;15.20;6.80;;;13.90;99.90;;;;;;4987401;28;20465;-88
2022/10/13 06:36:38;;;;;;;20.98;8.15;;;13.90;99.90;;;;;;4999056;28;20030;-88
2022/10/13 06:39:04;;;;;;;15.85;6.28;;;;;;;;;;5009217;28;20108;-92
2022/10/13 06:41:30;;;;;;;11.35;6.35;;;;;;;;;;4990180;28;20120;-89
2022/10/13 06:43:56;;;;;;;17.13;7.78;;;14.00;99.90;;;;;;5004549;28;20062;-89
2022/10/13 06:46:26;;;;;;;14.63;7.63;;;14.10;99.90;;;;;;4990614;28;20054;-90
2022/10/13 06:49:12;;;;;;;;;;;;;;;;;;;;;
2022/10/13 06:51:38;;;;;;;23.50;7.72;;;;;;;;;;4990713;28;20385;-90
2022/10/13 06:54:04;;;;;;;16.77;7.90;;;;;;;;;;4988131;28;20026;-90
2022/10/13 06:56:30;;;;;;;18.77;8.00;;;;;;;;;;4988787;28;20034;-88
2022/10/13 06:58:56;;;;;;;13.85;7.32;;;;;;;;;;4990356;28;20018;-89
2022/10/13 07:01:22;;;;;;;13.35;7.10;;;14.30;99.90;;;;;;4987909;28;20085;-89
2022/10/13 07:03:49;;;;;;;22.77;7.78;;;14.30;99.90;;;;;;4988157;28;20030;-89
2022/10/13 07:06:15;;;;;;;23.40;8.45;;;;;;;;;;4988642;28;20113;-88
2022/10/13 07:08:41;;;;;;;17.63;7.03;;;;;;;;;;4988789;28;20442;-89
2022/10/13 07:11:12;;;;;;;22.38;7.93;;;14.30;99.90;;;;;;4986445;28;20553;-89
2022/10/13 07:13:38;;;;;;;24.08;9.38;;;;;;;;;;4986961;28;20041;-90
2022/10/13 07:16:05;;;;;;;21.15;7.90;;;14.40;99.90;;;;;;4988078;28;20057;-89
2022/10/13 07:18:31;;;;;;;22.05;9.38;;;14.40;99.90;;;;;;4988198;28;20018;-88
2022/10/13 07:20:58;;;;;;;23.70;9.18;;;14.40;99.90;;;;;;4988500;28;20040;-89
2022/10/13 07:23:25;;;;;;;24.83;10.00;;;14.30;99.90;;;;;;4989862;28;20039;-89
2022/10/13 07:25:51;;;;;;;23.63;9.25;;;;;;;;;;4988590;28;20030;-89
2022/10/13 07:28:17;;;;;;;15.00;7.88;;;;;;;;;;4987138;28;20085;-89
2022/10/13 07:30:43;;;;;;;27.77;9.88;;;14.40;99.90;;;;;;4990385;28;20046;-89
2022/10/13 07:33:09;;;;;;;19.17;9.93;;;;;;;;;;4988134;28;20037;-89
2022/10/13 07:35:38;;;;;;;25.27;9.95;;;14.50;99.90;;;;;;4989494;28;20395;-89
2022/10/13 07:38:05;;;;;;;;;;;14.50;99.90;;;;;;4988847;28;20473;-89
2022/10/13 07:40:31;;;;;;;25.60;8.67;;;14.50;99.90;;;;;;4988411;28;20365;-88
2022/10/13 07:42:56;;;;;;;23.95;9.75;;;14.50;99.90;;;;;;4988065;28;20088;-91
2022/10/13 07:45:23;;;;;;;26.70;9.75;;;14.50;99.90;;;;;;4988002;28;20053;-90
2022/10/13 07:47:49;;;;;;;28.15;9.88;;;;;;;;;;4988198;28;20089;-89
2022/10/13 07:50:15;;;;;;;27.90;10.60;;;14.60;99.90;;;;;;4989108;28;20038;-89
2022/10/13 07:52:41;;;;;;;31.08;10.85;;;;;;;;;;4990324;28;20105;-89
2022/10/13 07:55:08;;;;;;;22.42;9.55;;;14.60;99.90;;;;;;4988320;28;20050;-90
2022/10/13 07:57:34;;;;;;;19.63;9.73;;;;;;;;;;4986979;28;20169;-90
2022/10/13 08:00:00;;;;;;;24.15;10.23;;;;;;;;;;4989832;28;20117;-89
2022/10/13 08:02:26;;;;;;;21.77;10.05;;;;;;;;;;4991357;28;20054;-90
2022/10/13 08:04:52;;;;;;;20.25;9.48;;;14.70;99.90;;;;;;4994481;28;20023;-89
2022/10/13 08:07:18;;;;;;;27.52;12.38;;;14.70;99.90;;;;;;5007713;28;20029;-90
2022/10/13 08:09:44;;;;;;;24.10;9.95;;;;;;;;;;5007707;28;20030;-88
2022/10/13 08:12:11;;;;;;;24.17;11.07;;;;;;;;;;5009690;28;20525;-89
2022/10/13 08:14:37;;;;;;;23.73;11.63;;;;;;;;;;4995349;28;20404;-89
2022/10/13 08:17:02;;;;;;;28.50;10.07;;;14.70;99.90;;;;;;4989847;28;20042;-88
2022/10/13 08:19:28;;;;;;;29.02;12.13;;;14.70;99.90;;;;;;4991657;28;20038;-88
2022/10/13 08:21:54;;;;;;;24.08;12.43;;;;;;;;;;4987939;28;20038;-89
2022/10/13 08:24:23;;;;;;;28.02;12.52;;;14.80;99.90;;;;;;4992048;28;20026;-91
2022/10/13 08:26:49;;;;;;;26.55;11.77;;;14.90;99.90;;;;;;5001275;28;20347;-95
2022/10/13 08:29:16;;;;;;;25.30;10.50;;;15.10;99.90;;;;;;5013625;28;20525;-91
2022/10/13 08:31:42;;;;;;;28.50;10.07;;;;;;;;;;5011173;28;20414;-90
2022/10/13 08:34:09;;;;;;;23.88;11.50;;;15.10;99.90;;;;;;5000591;28;20579;-91
2022/10/13 08:36:35;;;;;;;19.58;9.45;;;;;;;;;;4992208;28;20034;-90
2022/10/13 08:39:02;;;;;;;33.92;10.60;;;;;;;;;;4991276;28;20022;-89
2022/10/13 08:41:38;;;;;;;28.35;10.15;;;15.20;99.90;;;;;;4990007;28;20039;-89
2022/10/13 08:44:30;;;;;;;22.98;10.48;;;15.30;99.90;;;;;;4987900;28;20495;-91
2022/10/13 08:47:17;;;;;;;24.52;9.50;;;15.30;99.90;;;;;;4985058;28;20038;-87
2022/10/13 08:49:45;;;;;;;26.40;9.40;;;15.40;99.90;;;;;;4990031;28;20026;-87
2022/10/13 08:52:20;;;;;;;20.13;8.85;;;15.40;99.90;;;;;;4991852;28;20494;-89
2022/10/13 08:54:46;;;;;;;27.10;9.45;;;15.40;99.90;;;;;;4991346;28;20084;-87
2022/10/13 08:57:12;;;;;;;29.38;9.52;;;15.50;99.90;;;;;;4993114;28;20030;-94
2022/10/13 08:59:38;;;;;;;29.15;9.77;;;;;;;;;;4992048;28;20045;-87
2022/10/13 09:02:28;;;;;;;21.58;9.20;;;15.50;99.90;;;;;;4992400;28;20048;-86
2022/10/13 09:04:56;;;;;;;29.73;11.18;;;15.60;99.90;;;;;;4991833;28;20622;-87
2022/10/13 09:07:30;;;;;;;25.02;9.57;;;15.50;99.90;;;;;;4991817;28;20026;-87
2022/10/13 09:09:56;;;;;;;18.08;8.95;;;15.60;99.90;;;;;;4992929;28;20010;-92
2022/10/13 09:12:25;;;;;;;18.75;8.57;;;15.70;99.90;;;;;;4990801;28;20497;-92
2022/10/13 09:15:10;;;;;;;24.65;11.52;;;15.70;99.90;;;;;;4990973;28;20410;-86
2022/10/13 09:17:38;;;;;;;23.85;9.60;;;15.70;99.90;;;;;;4991630;28;20081;-87
2022/10/13 09:20:24;;;;;;;;;;;15.70;99.90;;;;;;4989988;28;20034;-88
2022/10/13 09:23:06;;;;;;;21.75;9.00;;;15.80;99.90;;;;;;4989677;28;20012;-85
2022/10/13 09:25:43;;;;;;;24.92;9.18;;;15.70;99.90;;;;;;4990105;28;20026;-86
2022/10/13 09:28:26;;;;;;;23.70;8.52;;;15.70;99.90;;;;;;4990429;28;20076;-88
2022/10/13 09:31:03;;;;;;;25.20;11.90;;;15.60;99.90;;;;;;4971527;28;20403;-85
2022/10/13 09:33:32;;;;;;;19.02;8.82;;;15.60;99.90;;;;;;4971381;28;20081;-87
2022/10/13 09:35:58;;;;;;;29.08;11.13;;;15.70;99.90;;;;;;4971534;28;20070;-86
2022/10/13 09:38:25;;;;;;;31.90;10.05;;;15.70;99.90;;;;;;4973173;28;20498;-86
2022/10/13 09:41:09;;;;;;;21.17;9.77;;;15.70;99.90;;;;;;4989013;28;20022;-84
2022/10/13 09:43:39;;;;;;;26.98;9.70;;;15.80;99.90;;;;;;4991182;28;20062;-95
2022/10/13 09:46:28;;;;;;;30.75;11.57;;;15.90;99.90;;;;;;4992224;28;20034;-94
2022/10/13 09:49:01;;;;;;;28.45;9.77;;;15.90;99.90;;;;;;4992270;28;20026;-90
2022/10/13 09:51:33;;;;;;;26.75;10.40;;;15.90;99.90;;;;;;4992723;28;20482;-92
2022/10/13 11:26:29;;;;;;;;;;;;;;;;;;;;;
2022/10/13 11:36:29;;;;;;;9.35;3.42;;;13.80;99.90;;;;;;4716925;30;20564;-95
2022/10/13 14:22:59;;;;;;;17.27;9.80;;;16.30;99.90;;;;;;6302461;22;20255;-91
2022/10/13 14:25:25;;;;;;;23.85;11.20;;;;;;;;;;6333726;22;20003;-87
2022/10/13 14:27:51;;;;;;;22.33;11.85;;;;;;;;;;6305447;22;20007;-88
2022/10/13 14:30:18;;;;;;;35.22;17.80;;;;;;;;;;6334536;22;20339;-90
2022/10/13 14:32:44;;;;;;;11.32;6.93;;;;;;;;;;6305057;22;20487;-90
2022/10/13 14:35:12;;;;;;;18.75;7.68;;;16.30;99.90;;;;;;6331943;22;20366;-90
2022/10/13 14:37:37;;;;;;;11.85;5.63;;;16.30;99.90;;;;;;6334794;22;20003;-87
2022/10/13 14:40:03;;;;;;;12.27;8.18;;;16.40;99.90;;;;;;6333961;22;20033;-88
2022/10/13 14:42:30;;;;;;;17.60;10.70;;;16.50;99.90;;;;;;6333394;22;20007;-87
2022/10/13 14:44:55;;;;;;;23.40;13.90;;;16.60;99.90;;;;;;6307833;22;20003;-87
2022/10/13 14:47:22;;;;;;;24.60;13.60;;;;;;;;;;6333847;22;20010;-88
2022/10/13 14:49:47;;;;;;;17.08;8.95;;;16.60;99.90;;;;;;6305576;22;20003;-88
2022/10/13 14:52:15;;;;;;;19.35;12.85;;;16.70;99.90;;;;;;6333903;22;20015;-90
2022/10/13 14:55:12;;;;;;;14.85;10.90;;;16.70;99.90;;;;;;6311728;22;20003;-94
2022/10/13 15:50:20;;;;;;;;;;;;;;;;;;;;;
2022/10/13 16:03:48;;;;;;;16.35;12.02;;;17.10;99.90;;;;;;6064592;23;20046;-91
2022/10/13 18:07:23;;;;;;;21.67;15.53;;;15.60;99.90;;;;;;6064113;23;20158;-91
2022/10/13 18:10:22;;;;;;;;;;;;;;;;;;;;;
2022/10/13 18:12:53;;;;;;;23.25;14.25;;;16.50;99.90;;;;;;6271241;22;20507;-91
2022/10/13 18:15:43;;;;;;;;;;;;;;;;;;;;;
2022/10/13 19:23:54;;;;;;;370.35;28.52;;;18.80;99.90;;;;;;5861651;24;20123;-93
2022/10/13 19:33:47;;;;;;;;;;;;;;;;;;;;;
2022/10/13 19:40:46;;;;;;;;;;;;;;;;;;;;;
2022/10/13 20:26:44;;;;;;;;;;;;;;;;;;;;;
2022/10/13 21:58:54;;;;;;;;;;;;;;;;;;;;;
2022/10/13 22:02:20;;;;;;;;;;;;;;;;;;;;;
